Hauptseite
METAR-TAF:

METAR-TAF

Flughäfen :

Militärflugplatz Sarzana-Luni

Sarzana, Italien

Breite: 44-05N, Länge: 009-59E, Höhe: 9 m

Beobachtung

Neuester Wetterbericht von vor 56 Minuten, um 11:55 UTC
Wind 9 kt aus Süd
Temperatur 18°C
Luftfeuchtigkeit 83%
Luftdruck 1015 hPa
Sichtweite 10 km oder mehr
Aufgelockert bewölkt in der Höhe von 1500 ft
Durchbrochene Bewölkung in der Höhe von 3000 ft

METAR: LIQW 241155Z 19009KT 9999 SCT015 BKN030 18/15 Q1015 RMK OVC VIS MIN 9999 WIND THR18 24014KT BLU

Zeit: 14:51 (12:51 UTC)


TAF: fehlend

Wetterbeobachtungen und Prognosen von mehr als 4000 Flughäfen (METAR und TAF Bericht).

Die verfügbaren Stationen werden durch gelbe und rote Markierungen auf der Karte dargestellt.

Führen Sie die Maus auf sie, um den Namen der Station zu sehen.

Darauf klicken, um die Beobachtung von Wetterbeobachtungen und Prognosen zu sehen.

Um die Karte zu ändern : klicken Sie auf den grünen Tasten mit einem schwarzen Kreuz Zum Vergrößern, auf den grünen Button mit einem Gedankenstrich zu verkleinern, oder auf die grünen Pfeile für benachbarte Karten.


METAR-TAF: